Time;durP1;ratioP1;P1;durP2;ratioP2;P2;SDS_P1;SDS_P2;PMS_P1;PMS_P2;Temp;Humidity;BMP_temperature;BMP_pressure;BME280_temperature;BME280_humidity;BME280_pressure;Samples;Min_cycle;Max_cycle;Signal;HPM_P1;HPM_P2
2022/01/14 00:02:04;;;;;;;35.73;22.17;;;-1.90;99.90;;;;;;4920430;29;20672;-79
2022/01/14 00:04:30;;;;;;;39.07;23.27;;;-1.90;99.90;;;;;;4920306;29;20184;-78
2022/01/14 00:06:56;;;;;;;38.57;23.53;;;-1.90;99.90;;;;;;4919521;29;20234;-78
2022/01/14 00:09:22;;;;;;;35.30;21.43;;;-2.00;99.90;;;;;;4919199;29;20184;-78
2022/01/14 00:11:51;;;;;;;30.40;20.27;;;-2.10;99.90;;;;;;4919446;29;20191;-78
2022/01/14 00:16:44;;;;;;;32.60;20.43;;;-2.30;99.90;;;;;;4920984;29;20207;-80
2022/01/14 00:19:10;;;;;;;34.67;21.17;;;-2.30;99.90;;;;;;4922299;29;20606;-79
2022/01/14 00:21:38;;;;;;;38.40;22.73;;;-2.30;99.90;;;;;;4921921;29;20183;-78
2022/01/14 00:24:08;;;;;;;36.77;22.03;;;-2.20;99.90;;;;;;4920715;29;20545;-79
2022/01/14 00:32:10;;;;;;;37.17;23.37;;;-2.30;99.90;;;;;;4923374;29;20266;-79
2022/01/14 00:34:35;;;;;;;36.93;22.00;;;-2.30;99.90;;;;;;4921910;29;20214;-80
2022/01/14 00:37:02;;;;;;;32.23;21.27;;;-2.30;99.90;;;;;;4920201;29;20176;-79
2022/01/14 00:39:28;;;;;;;35.93;22.40;;;-2.30;99.90;;;;;;4918777;29;20220;-79
2022/01/14 00:41:53;;;;;;;36.50;22.10;;;-2.30;99.90;;;;;;4921209;29;20545;-79
2022/01/14 00:44:20;;;;;;;35.37;22.67;;;-2.20;99.90;;;;;;4922950;29;20279;-81
2022/01/14 00:46:47;;;;;;;41.90;24.37;;;-2.20;99.90;;;;;;4922967;29;20219;-80
2022/01/14 00:49:14;;;;;;;37.77;23.70;;;-2.10;99.90;;;;;;4921360;29;20184;-81
2022/01/14 00:51:40;;;;;;;34.93;22.60;;;-2.20;99.90;;;;;;4920578;29;20188;-79
2022/01/14 00:54:07;;;;;;;35.03;22.63;;;-2.10;99.90;;;;;;4919360;29;20525;-79
2022/01/14 00:56:46;;;;;;;36.63;22.40;;;-2.10;99.90;;;;;;4901832;29;20314;-78
2022/01/14 00:59:15;;;;;;;34.43;22.13;;;-2.20;99.90;;;;;;4919703;29;20772;-81
2022/01/14 01:01:45;;;;;;;34.37;22.33;;;-2.30;99.90;;;;;;4919829;29;20179;-79
2022/01/14 01:04:30;;;;;;;43.73;22.13;;;-2.60;99.90;;;;;;4919523;29;20700;-85
2022/01/14 01:06:56;;;;;;;35.93;21.07;;;-2.50;99.90;;;;;;4920446;29;20171;-78
2022/01/14 01:09:24;;;;;;;33.80;21.83;;;-2.40;99.90;;;;;;4920557;29;20176;-78
2022/01/14 01:11:54;;;;;;;36.50;22.47;;;-2.30;99.90;;;;;;4918895;29;20187;-79
2022/01/14 01:14:27;;;;;;;38.33;23.67;;;-2.30;99.90;;;;;;4917370;29;20187;-79
2022/01/14 01:16:52;;;;;;;36.13;22.07;;;-2.20;99.90;;;;;;4917939;29;20183;-79
2022/01/14 01:19:18;;;;;;;33.80;21.67;;;-2.20;99.90;;;;;;4919964;29;20227;-79
2022/01/14 01:21:44;;;;;;;36.87;23.03;;;-2.30;99.90;;;;;;4917355;29;20552;-79
2022/01/14 01:24:11;;;;;;;35.80;21.90;;;-2.30;99.90;;;;;;4921453;29;20175;-80
2022/01/14 01:26:40;;;;;;;37.97;21.23;;;-2.30;99.90;;;;;;4921913;29;20735;-81
2022/01/14 01:31:40;;;;;;;36.53;22.47;;;-2.40;99.90;;;;;;4920555;29;20591;-80
2022/01/14 01:34:19;;;;;;;36.30;22.63;;;-2.40;99.90;;;;;;4920600;29;20258;-83
2022/01/14 01:36:46;;;;;;;35.90;23.20;;;-2.40;99.90;;;;;;4920026;29;20195;-81
2022/01/14 01:39:18;;;;;;;36.37;22.97;;;-2.40;99.90;;;;;;4919835;29;20234;-82
2022/01/14 01:41:46;;;;;;;36.83;23.47;;;-2.30;99.90;;;;;;4919530;29;20180;-82
2022/01/14 01:44:14;;;;;;;42.17;25.47;;;-2.20;99.90;;;;;;4919947;29;20186;-79
2022/01/14 01:46:42;;;;;;;42.53;25.47;;;-2.10;99.90;;;;;;4920637;29;20215;-80
2022/01/14 01:49:10;;;;;;;41.50;24.77;;;-2.20;99.90;;;;;;4921273;29;20195;-79
2022/01/14 01:51:36;;;;;;;34.67;22.07;;;-2.20;99.90;;;;;;4904126;29;20263;-81
2022/01/14 01:56:39;;;;;;;33.40;22.63;;;-2.30;99.90;;;;;;4951912;28;20317;-80
2022/01/14 01:59:05;;;;;;;32.33;21.87;;;-2.30;99.90;;;;;;4953243;28;20293;-79
2022/01/14 02:01:31;;;;;;;36.53;22.50;;;-2.40;99.90;;;;;;4953376;28;20196;-79
2022/01/14 02:03:57;;;;;;;35.33;21.73;;;-2.50;99.90;;;;;;4953427;28;20174;-79
2022/01/14 02:06:23;;;;;;;35.17;22.47;;;-2.50;99.90;;;;;;4953458;28;20214;-79
2022/01/14 02:08:50;;;;;;;35.43;23.13;;;-2.60;99.90;;;;;;4953607;28;20182;-80
2022/01/14 02:11:16;;;;;;;39.57;23.23;;;-2.50;99.90;;;;;;4953380;29;20182;-77
2022/01/14 02:13:43;;;;;;;35.63;22.20;;;-2.50;99.90;;;;;;4953233;29;20635;-77
2022/01/14 02:18:48;;;;;;;35.63;23.63;;;-2.50;99.90;;;;;;4953379;28;20555;-77
2022/01/14 02:26:53;;;;;;;35.33;21.33;;;-2.60;99.90;;;;;;4937729;29;20634;-77
2022/01/14 02:29:20;;;;;;;33.97;21.80;;;-2.60;99.90;;;;;;4952572;28;20174;-77
2022/01/14 02:31:46;;;;;;;37.77;21.60;;;-2.70;99.90;;;;;;4952890;28;20237;-76
2022/01/14 02:34:14;;;;;;;34.47;22.03;;;-2.70;99.90;;;;;;4952703;29;20186;-76
2022/01/14 02:36:44;;;;;;;34.70;22.00;;;-2.70;99.90;;;;;;4952266;28;20202;-76
2022/01/14 02:39:12;;;;;;;32.30;21.37;;;-2.60;99.90;;;;;;4952398;28;20210;-76
2022/01/14 02:41:40;;;;;;;36.17;21.60;;;-2.70;99.90;;;;;;4952609;29;20719;-75
2022/01/14 02:44:08;;;;;;;32.27;21.90;;;-2.70;99.90;;;;;;4952553;28;20194;-76
2022/01/14 02:46:39;;;;;;;33.07;20.93;;;-2.60;99.90;;;;;;4934796;29;20629;-76
2022/01/14 02:49:04;;;;;;;36.73;21.37;;;-2.80;99.90;;;;;;4952593;28;20190;-75
2022/01/14 02:51:31;;;;;;;38.17;22.67;;;-2.80;99.90;;;;;;4952478;28;20190;-75
2022/01/14 02:54:09;;;;;;;34.27;21.13;;;-2.90;99.90;;;;;;4956068;28;20190;-75
2022/01/14 02:56:35;;;;;;;33.53;21.17;;;-2.90;99.90;;;;;;4955432;28;20221;-76
2022/01/14 02:59:02;;;;;;;34.73;21.63;;;-2.80;99.90;;;;;;4956050;29;20301;-76
2022/01/14 03:01:28;;;;;;;34.83;22.47;;;-2.80;99.90;;;;;;4955868;28;20553;-76
2022/01/14 03:03:58;;;;;;;42.03;24.17;;;-2.80;99.90;;;;;;4955966;28;20183;-75
2022/01/14 03:06:25;;;;;;;35.97;23.10;;;-2.70;99.90;;;;;;4955056;29;20209;-76
2022/01/14 03:08:51;;;;;;;43.27;25.23;;;-2.70;99.90;;;;;;4955791;28;20190;-76
2022/01/14 03:11:26;;;;;;;39.23;24.17;;;-2.70;99.90;;;;;;4955950;28;20185;-78
2022/01/14 03:13:52;;;;;;;36.07;22.67;;;-2.90;99.90;;;;;;4955958;28;20185;-77
2022/01/14 03:16:20;;;;;;;34.03;21.63;;;-3.10;99.90;;;;;;4955185;29;20199;-76
2022/01/14 03:18:50;;;;;;;35.10;21.57;;;-3.10;99.90;;;;;;4955702;28;20580;-76
2022/01/14 03:21:24;;;;;;;35.10;22.37;;;-3.00;99.90;;;;;;4955650;29;20189;-76
2022/01/14 03:24:02;;;;;;;37.40;23.27;;;-2.90;99.90;;;;;;4955500;29;20586;-76
2022/01/14 03:26:27;;;;;;;36.13;22.17;;;-2.80;99.90;;;;;;4955144;29;20210;-76
2022/01/14 03:28:53;;;;;;;37.90;24.13;;;-2.80;99.90;;;;;;4955465;29;20674;-76
2022/01/14 03:31:18;;;;;;;35.40;23.23;;;-2.80;99.90;;;;;;4955484;29;20550;-76
2022/01/14 03:33:44;;;;;;;37.60;23.57;;;-2.80;99.90;;;;;;4955407;28;20206;-76
2022/01/14 03:36:10;;;;;;;40.37;25.17;;;-2.70;99.90;;;;;;4954741;28;20629;-76
2022/01/14 03:38:36;;;;;;;43.57;26.23;;;-2.70;99.90;;;;;;4955354;28;20265;-76
2022/01/14 03:41:02;;;;;;;36.10;24.00;;;-2.70;99.90;;;;;;4955529;29;20274;-76
2022/01/14 03:43:28;;;;;;;37.37;23.13;;;-2.70;99.90;;;;;;4955375;28;20659;-76
2022/01/14 03:45:53;;;;;;;36.87;23.80;;;-2.80;99.90;;;;;;4954890;29;20306;-76
2022/01/14 03:48:19;;;;;;;37.10;22.30;;;-2.80;99.90;;;;;;4937921;29;20217;-76
2022/01/14 03:50:45;;;;;;;37.77;23.27;;;-2.80;99.90;;;;;;4954992;28;20179;-76
2022/01/14 03:53:12;;;;;;;39.43;24.07;;;-2.80;99.90;;;;;;4955284;28;20551;-76
2022/01/14 03:55:39;;;;;;;40.27;24.83;;;-2.80;99.90;;;;;;4954502;28;20559;-76
2022/01/14 03:58:09;;;;;;;39.07;24.23;;;-2.70;99.90;;;;;;4954902;29;20253;-76
2022/01/14 04:00:36;;;;;;;35.00;23.60;;;-2.70;99.90;;;;;;4954870;29;20572;-76
2022/01/14 04:03:02;;;;;;;38.43;23.50;;;-2.70;99.90;;;;;;4954889;28;20234;-76
2022/01/14 04:05:28;;;;;;;39.10;23.73;;;-2.70;99.90;;;;;;4953970;28;20253;-76
2022/01/14 04:07:54;;;;;;;36.67;24.53;;;-2.70;99.90;;;;;;4954923;28;20186;-76
2022/01/14 04:10:21;;;;;;;37.43;23.93;;;-2.80;99.90;;;;;;4954970;29;20178;-77
2022/01/14 04:12:56;;;;;;;35.10;23.23;;;-2.80;99.90;;;;;;4954797;28;20178;-75
2022/01/14 04:15:37;;;;;;;38.20;24.07;;;-2.80;99.90;;;;;;4954236;29;20578;-75
2022/01/14 04:18:06;;;;;;;37.27;23.60;;;-2.80;99.90;;;;;;4954883;28;20202;-75
2022/01/14 04:20:32;;;;;;;37.13;22.33;;;-2.80;99.90;;;;;;4954506;29;20762;-75
2022/01/14 04:22:59;;;;;;;37.00;22.80;;;-2.80;99.90;;;;;;4954644;28;20182;-76
2022/01/14 04:25:25;;;;;;;33.83;22.90;;;-2.80;99.90;;;;;;4954058;28;20202;-75
2022/01/14 04:27:51;;;;;;;36.07;22.60;;;-2.90;99.90;;;;;;4954421;28;20520;-75
2022/01/14 04:30:17;;;;;;;35.97;23.23;;;-2.80;99.90;;;;;;4954496;28;20261;-75
2022/01/14 04:32:43;;;;;;;37.90;23.57;;;-2.90;99.90;;;;;;4954609;29;20174;-75
2022/01/14 04:35:09;;;;;;;34.20;22.23;;;-3.10;99.90;;;;;;4954326;28;20264;-75
2022/01/14 04:37:35;;;;;;;36.17;22.87;;;-3.10;99.90;;;;;;4954502;28;20585;-76
2022/01/14 04:40:00;;;;;;;38.80;22.97;;;-3.10;99.90;;;;;;4954532;29;20210;-76
2022/01/14 04:42:27;;;;;;;38.03;23.13;;;-3.10;99.90;;;;;;4954428;29;20205;-75
2022/01/14 04:44:55;;;;;;;36.80;23.80;;;-3.00;99.90;;;;;;4953594;28;20205;-75
2022/01/14 04:50:06;;;;;;;37.03;23.13;;;-3.00;99.90;;;;;;4954181;28;20634;-76
2022/01/14 04:52:31;;;;;;;39.23;24.03;;;-3.00;99.90;;;;;;4954517;28;20285;-78
2022/01/14 04:54:57;;;;;;;41.73;23.53;;;-3.00;99.90;;;;;;4953490;28;20214;-76
2022/01/14 04:57:22;;;;;;;38.80;23.93;;;-3.00;99.90;;;;;;4953869;28;20218;-76
2022/01/14 04:59:49;;;;;;;36.77;22.93;;;-2.90;99.90;;;;;;4954225;28;20210;-77
2022/01/14 05:02:15;;;;;;;37.70;23.83;;;-2.80;99.90;;;;;;4955066;28;20182;-77
2022/01/14 05:04:43;;;;;;;38.43;23.80;;;-2.90;99.90;;;;;;4954569;28;20233;-77
2022/01/14 05:07:14;;;;;;;35.90;22.80;;;-2.90;99.90;;;;;;4954979;28;20261;-78
2022/01/14 05:09:44;;;;;;;40.87;23.67;;;-2.80;99.90;;;;;;4954843;28;20171;-78
2022/01/14 05:12:10;;;;;;;34.83;21.90;;;-2.80;99.90;;;;;;4954975;29;20182;-77
2022/01/14 05:14:37;;;;;;;38.40;24.03;;;-2.80;99.90;;;;;;4954613;29;20194;-78
2022/01/14 05:17:03;;;;;;;39.03;23.27;;;-2.80;99.90;;;;;;4953982;28;20182;-77
2022/01/14 05:19:28;;;;;;;37.67;23.33;;;-2.90;99.90;;;;;;4954625;28;20211;-78
2022/01/14 05:21:54;;;;;;;38.47;23.87;;;-2.90;99.90;;;;;;4954713;29;20186;-78
2022/01/14 05:24:20;;;;;;;37.97;23.30;;;-2.90;99.90;;;;;;4954481;28;20192;-78
2022/01/14 05:26:45;;;;;;;39.37;22.90;;;-2.90;99.90;;;;;;4954822;28;20205;-78
2022/01/14 05:29:11;;;;;;;37.77;22.33;;;-2.80;99.90;;;;;;4955420;28;20170;-78
2022/01/14 05:31:50;;;;;;;37.20;22.43;;;-2.90;99.90;;;;;;4955331;29;20170;-78
2022/01/14 05:34:15;;;;;;;38.50;22.90;;;-3.00;99.90;;;;;;4955100;28;20705;-78
2022/01/14 05:36:41;;;;;;;37.03;22.03;;;-3.00;99.90;;;;;;4954956;28;20206;-77
2022/01/14 05:39:07;;;;;;;38.33;22.80;;;-3.00;99.90;;;;;;4954224;28;20683;-78
2022/01/14 05:41:33;;;;;;;35.07;21.40;;;-2.90;99.90;;;;;;4954481;29;20186;-78
2022/01/14 05:43:59;;;;;;;34.07;21.50;;;-2.90;99.90;;;;;;4954666;28;20175;-78
2022/01/14 05:46:25;;;;;;;34.70;22.33;;;-3.00;99.90;;;;;;4954264;29;20202;-78
2022/01/14 05:48:51;;;;;;;39.63;22.33;;;-2.90;99.90;;;;;;4954736;29;20214;-77
2022/01/14 05:51:16;;;;;;;34.93;22.57;;;-2.90;99.90;;;;;;4954722;29;20286;-78
2022/01/14 05:53:42;;;;;;;35.13;22.57;;;-2.80;99.90;;;;;;4954110;28;20194;-80
2022/01/14 05:56:07;;;;;;;37.03;22.30;;;-2.90;99.90;;;;;;4953939;28;20218;-78
2022/01/14 05:58:33;;;;;;;42.17;26.33;;;-2.90;99.90;;;;;;4955863;28;20186;-77
2022/01/14 06:00:58;;;;;;;62.83;47.57;;;-3.00;99.90;;;;;;4957751;28;20186;-78
2022/01/14 06:03:24;;;;;;;54.53;34.57;;;-3.00;99.90;;;;;;4955560;29;20194;-78
2022/01/14 06:05:49;;;;;;;42.27;29.00;;;-3.00;99.90;;;;;;4953706;29;20269;-77
2022/01/14 06:08:15;;;;;;;50.03;35.40;;;-3.10;99.90;;;;;;4953739;28;20544;-77
2022/01/14 06:10:40;;;;;;;47.80;32.13;;;-3.10;99.90;;;;;;4953819;28;20594;-77
2022/01/14 06:13:07;;;;;;;45.43;30.83;;;-3.10;99.90;;;;;;4954950;29;20210;-78
2022/01/14 06:15:32;;;;;;;37.43;25.03;;;-3.00;99.90;;;;;;4953552;29;20582;-77
2022/01/14 06:17:58;;;;;;;37.37;24.30;;;-3.10;99.90;;;;;;4953943;29;20265;-76
2022/01/14 06:20:23;;;;;;;38.37;24.80;;;-3.00;99.90;;;;;;4953775;28;20202;-77
2022/01/14 06:22:49;;;;;;;38.40;27.20;;;-3.00;99.90;;;;;;4954407;28;20679;-76
2022/01/14 06:25:15;;;;;;;38.77;25.30;;;-3.10;99.90;;;;;;4954922;29;20198;-76
2022/01/14 06:27:40;;;;;;;36.57;24.57;;;-3.10;99.90;;;;;;4957223;28;20610;-77
2022/01/14 06:30:07;;;;;;;36.30;23.77;;;-3.10;99.90;;;;;;4957598;29;20167;-77
2022/01/14 06:32:41;;;;;;;39.47;23.40;;;-3.10;99.90;;;;;;4957553;29;20305;-77
2022/01/14 06:35:11;;;;;;;38.83;22.97;;;-3.00;99.90;;;;;;4956981;28;20726;-76
2022/01/14 06:37:38;;;;;;;36.17;21.70;;;-3.10;99.90;;;;;;4971693;29;20189;-76
2022/01/14 06:40:04;;;;;;;35.67;22.47;;;-3.10;99.90;;;;;;4971671;28;20277;-77
2022/01/14 06:42:30;;;;;;;35.60;23.63;;;-3.20;99.90;;;;;;4971220;29;20179;-78
2022/01/14 06:44:56;;;;;;;37.17;22.77;;;-3.20;99.90;;;;;;4959181;28;20203;-78
2022/01/14 06:47:22;;;;;;;39.13;22.97;;;-3.20;99.90;;;;;;4957446;29;20186;-77
2022/01/14 06:49:48;;;;;;;37.87;23.23;;;-3.30;99.90;;;;;;4957773;28;20549;-77
2022/01/14 06:52:13;;;;;;;38.07;23.33;;;-3.20;99.90;;;;;;4957424;28;20182;-77
2022/01/14 06:54:39;;;;;;;42.10;23.63;;;-3.20;99.90;;;;;;4956750;29;20675;-77
2022/01/14 06:57:05;;;;;;;42.53;24.17;;;-3.10;99.90;;;;;;4958363;29;20183;-76
2022/01/14 06:59:31;;;;;;;39.93;23.23;;;-3.00;99.90;;;;;;4957478;28;20601;-77
2022/01/14 07:01:56;;;;;;;38.27;23.53;;;-2.90;99.90;;;;;;4957072;28;20230;-77
2022/01/14 07:04:22;;;;;;;40.00;24.30;;;-2.90;99.90;;;;;;4956561;28;20183;-77
2022/01/14 07:06:47;;;;;;;39.57;23.30;;;-2.90;99.90;;;;;;4957013;29;20229;-79
2022/01/14 07:09:13;;;;;;;33.77;22.40;;;-2.90;99.90;;;;;;4940253;29;20182;-78
2022/01/14 07:11:39;;;;;;;33.30;23.00;;;-2.90;99.90;;;;;;4958475;29;20170;-78
2022/01/14 07:14:05;;;;;;;34.80;21.83;;;-2.90;99.90;;;;;;4958163;28;20293;-78
2022/01/14 07:16:33;;;;;;;36.03;23.27;;;-2.90;99.90;;;;;;4956945;28;20265;-78
2022/01/14 07:19:00;;;;;;;40.80;22.97;;;-2.90;99.90;;;;;;4957091;28;20214;-78
2022/01/14 07:21:26;;;;;;;34.30;20.87;;;-2.90;99.90;;;;;;4956764;29;20705;-77
2022/01/14 07:23:51;;;;;;;35.83;21.30;;;-2.90;99.90;;;;;;4957020;28;20183;-78
2022/01/14 07:26:17;;;;;;;34.67;21.90;;;-2.90;99.90;;;;;;4958097;28;20281;-79
2022/01/14 07:28:43;;;;;;;33.97;21.67;;;-2.50;99.90;;;;;;4958241;29;20261;-78
2022/01/14 07:31:09;;;;;;;33.33;21.20;;;-2.40;99.90;;;;;;4974507;29;20182;-77
2022/01/14 07:33:35;;;;;;;35.83;21.40;;;-2.20;99.90;;;;;;4975462;28;20187;-78
2022/01/14 07:36:01;;;;;;;33.10;21.37;;;-2.10;99.90;;;;;;4971833;28;20246;-78
2022/01/14 07:38:27;;;;;;;34.77;21.53;;;-2.00;99.90;;;;;;4958043;28;20190;-78
2022/01/14 07:40:52;;;;;;;33.40;19.93;;;-1.80;44.90;;;;;;4958993;28;20218;-79
2022/01/14 07:43:20;;;;;;;30.13;19.80;;;-1.10;1.00;;;;;;4959395;28;20193;-78
2022/01/14 07:45:47;;;;;;;33.40;23.53;;;-0.40;1.00;;;;;;4958974;29;20194;-79
2022/01/14 07:48:12;;;;;;;29.73;19.53;;;0.40;1.00;;;;;;4960442;29;20187;-79
2022/01/14 07:50:38;;;;;;;32.77;21.00;;;1.00;99.90;;;;;;4961108;29;20185;-78
2022/01/14 07:53:04;;;;;;;34.63;20.07;;;1.10;99.90;;;;;;4959502;29;20186;-79
2022/01/14 07:55:30;;;;;;;27.67;19.27;;;1.60;99.90;;;;;;4958412;29;20221;-80
2022/01/14 07:57:56;;;;;;;25.00;18.17;;;2.20;99.90;;;;;;4959106;28;20182;-78
2022/01/14 08:00:22;;;;;;;29.63;20.23;;;2.50;1.00;;;;;;4958611;29;20269;-77
2022/01/14 08:02:47;;;;;;;28.13;19.30;;;2.90;99.90;;;;;;4957594;29;20732;-78
2022/01/14 08:05:15;;;;;;;31.00;20.63;;;3.10;1.00;;;;;;4949983;29;20203;-79
2022/01/14 08:07:45;;;;;;;28.97;20.77;;;3.00;1.00;;;;;;4955809;29;20226;-79
2022/01/14 08:10:13;;;;;;;32.23;20.37;;;2.80;1.00;;;;;;4959762;29;20186;-80
2022/01/14 08:12:40;;;;;;;33.83;21.03;;;3.10;1.00;;;;;;4957660;29;20261;-79
2022/01/14 08:15:07;;;;;;;30.03;20.43;;;3.40;99.90;;;;;;4956291;28;20206;-77
2022/01/14 08:17:33;;;;;;;26.50;20.57;;;3.80;99.90;;;;;;4952952;28;20179;-75
2022/01/14 08:19:58;;;;;;;25.43;20.50;;;4.50;99.90;;;;;;4946600;28;20214;-76
2022/01/14 08:22:24;;;;;;;24.63;20.17;;;4.80;72.20;;;;;;4944956;28;20183;-78
2022/01/14 08:24:49;;;;;;;25.40;19.87;;;5.00;8.30;;;;;;4947815;28;20238;-76
2022/01/14 08:27:15;;;;;;;26.30;19.90;;;5.10;1.00;;;;;;4945117;29;20261;-75
2022/01/14 08:29:41;;;;;;;26.10;19.27;;;5.30;1.00;;;;;;4945020;28;20299;-76
2022/01/14 08:32:07;;;;;;;24.70;19.23;;;5.10;1.00;;;;;;4943832;29;20202;-79
2022/01/14 08:34:33;;;;;;;23.83;18.87;;;5.40;1.00;;;;;;4939036;29;20653;-78
2022/01/14 08:36:58;;;;;;;25.23;18.83;;;5.70;1.00;;;;;;4939734;29;20198;-79
2022/01/14 08:39:24;;;;;;;24.37;18.57;;;5.90;1.00;;;;;;4945056;28;20211;-79
2022/01/14 08:41:50;;;;;;;23.90;18.93;;;6.50;1.00;;;;;;4944053;28;20279;-79
2022/01/14 08:44:16;;;;;;;22.83;19.07;;;6.50;1.00;;;;;;4945416;29;20250;-80
2022/01/14 08:46:42;;;;;;;24.10;18.60;;;6.30;1.00;;;;;;4946781;29;20210;-80
2022/01/14 08:49:09;;;;;;;24.43;18.20;;;5.80;1.00;;;;;;4946834;29;20222;-79
2022/01/14 08:51:36;;;;;;;21.83;17.07;;;6.40;1.00;;;;;;4944419;28;20190;-79
2022/01/14 08:54:03;;;;;;;21.00;18.73;;;6.40;1.00;;;;;;4937367;29;20210;-80
2022/01/14 08:56:30;;;;;;;20.90;17.57;;;6.50;1.00;;;;;;4936848;29;20218;-80
2022/01/14 08:58:55;;;;;;;21.50;18.23;;;6.20;1.00;;;;;;4937599;29;20222;-80
2022/01/14 09:01:21;;;;;;;21.80;18.27;;;6.60;1.00;;;;;;4946336;29;20179;-80
2022/01/14 09:03:48;;;;;;;22.37;18.23;;;6.70;1.00;;;;;;4956105;28;20285;-79
2022/01/14 09:06:13;;;;;;;21.10;17.50;;;5.90;1.00;;;;;;4955775;29;20563;-79
2022/01/14 09:08:39;;;;;;;20.73;16.97;;;6.20;1.00;;;;;;4956153;28;20213;-79
2022/01/14 09:11:07;;;;;;;20.03;16.73;;;6.10;1.00;;;;;;4956269;28;20214;-79
2022/01/14 09:13:33;;;;;;;21.47;17.07;;;6.60;1.00;;;;;;4946158;29;20254;-80
2022/01/14 09:15:59;;;;;;;17.70;15.73;;;6.90;1.00;;;;;;4952734;28;20289;-79
2022/01/14 09:18:25;;;;;;;18.43;16.37;;;7.10;1.00;;;;;;4955021;28;20190;-79
2022/01/14 09:20:50;;;;;;;17.37;15.47;;;7.50;1.00;;;;;;4948928;28;20211;-78
2022/01/14 09:23:23;;;;;;;17.27;15.40;;;7.60;1.00;;;;;;4947675;28;20241;-78
2022/01/14 09:25:49;;;;;;;17.27;15.33;;;8.20;1.00;;;;;;4943284;29;20211;-78
2022/01/14 09:28:14;;;;;;;17.73;15.83;;;8.10;1.00;;;;;;4945686;29;20740;-79
2022/01/14 09:30:40;;;;;;;19.50;16.63;;;7.00;1.00;;;;;;4947292;29;20226;-81
2022/01/14 09:33:06;;;;;;;19.47;15.93;;;6.70;1.00;;;;;;4952329;29;20700;-80
2022/01/14 09:35:32;;;;;;;18.20;15.93;;;7.50;1.00;;;;;;4954387;28;20202;-79
2022/01/14 09:37:58;;;;;;;18.80;16.03;;;8.20;1.00;;;;;;4961784;28;20213;-77
2022/01/14 09:40:24;;;;;;;18.43;15.53;;;8.00;1.00;;;;;;4961623;28;20214;-77
2022/01/14 09:42:51;;;;;;;21.60;17.10;;;7.30;1.00;;;;;;4958922;28;20186;-77
2022/01/14 09:45:18;;;;;;;22.13;16.97;;;7.40;1.00;;;;;;4959978;29;20194;-77
2022/01/14 09:47:49;;;;;;;18.77;15.97;;;7.30;1.00;;;;;;4954637;28;20191;-77
2022/01/14 09:50:15;;;;;;;17.67;15.33;;;7.70;1.00;;;;;;4952829;29;20193;-78
2022/01/14 09:52:41;;;;;;;18.57;15.50;;;7.90;1.00;;;;;;4951683;29;20182;-77
2022/01/14 09:55:07;;;;;;;17.03;15.23;;;8.10;1.00;;;;;;4934100;29;20707;-78
2022/01/14 09:57:32;;;;;;;18.63;15.10;;;8.30;1.00;;;;;;4954290;28;20178;-78
2022/01/14 09:59:58;;;;;;;21.63;16.83;;;8.40;1.00;;;;;;4953072;29;20701;-78
2022/01/14 10:02:40;;;;;;;19.33;16.63;;;8.00;1.00;;;;;;4952863;28;20532;-77
2022/01/14 10:05:08;;;;;;;24.40;16.00;;;7.80;1.00;;;;;;4951406;28;20207;-77
2022/01/14 10:07:34;;;;;;;19.97;16.47;;;8.20;1.00;;;;;;4955257;29;20189;-77
2022/01/14 10:10:02;;;;;;;19.00;15.53;;;8.30;1.00;;;;;;4959815;28;20194;-77
2022/01/14 10:12:33;;;;;;;20.53;17.57;;;8.80;1.00;;;;;;4967153;28;20186;-77
2022/01/14 10:15:06;;;;;;;19.10;16.73;;;9.10;1.00;;;;;;4964100;28;20238;-77
2022/01/14 10:17:41;;;;;;;17.90;15.87;;;9.30;1.00;;;;;;4963933;28;20183;-77
2022/01/14 10:20:08;;;;;;;20.50;16.77;;;9.60;1.00;;;;;;4961308;28;20237;-77
2022/01/14 10:22:38;;;;;;;18.00;15.80;;;8.70;1.00;;;;;;4953841;29;20237;-77
2022/01/14 10:25:07;;;;;;;17.20;15.10;;;7.40;1.00;;;;;;4952224;29;20209;-77
2022/01/14 10:27:38;;;;;;;21.73;16.90;;;6.50;1.00;;;;;;4952999;29;20182;-77
2022/01/14 10:30:29;;;;;;;24.00;17.67;;;5.90;1.00;;;;;;4951870;29;20276;-77
2022/01/14 10:33:04;;;;;;;22.90;18.87;;;6.10;1.00;;;;;;4950842;28;20186;-77
2022/01/14 10:35:34;;;;;;;20.67;16.73;;;5.80;99.90;;;;;;4950945;28;20205;-76
2022/01/14 10:38:03;;;;;;;21.30;15.87;;;5.90;99.90;;;;;;4949976;29;20213;-76
2022/01/14 10:40:31;;;;;;;22.47;16.60;;;6.00;99.90;;;;;;4951153;28;20222;-76
2022/01/14 10:43:05;;;;;;;20.87;16.73;;;6.10;85.70;;;;;;4949641;29;20187;-76
2022/01/14 10:45:30;;;;;;;18.90;14.73;;;6.30;50.40;;;;;;4950532;29;20206;-76
2022/01/14 10:48:05;;;;;;;20.23;15.63;;;6.00;99.90;;;;;;4949820;29;20193;-77
2022/01/14 10:50:41;;;;;;;20.90;15.57;;;5.90;99.90;;;;;;4950857;29;20651;-76
2022/01/14 10:53:09;;;;;;;21.67;15.43;;;6.20;62.20;;;;;;4942383;29;20205;-76
2022/01/14 10:55:38;;;;;;;19.00;15.40;;;5.90;97.30;;;;;;4946258;28;20238;-77
2022/01/14 10:58:17;;;;;;;21.90;15.27;;;6.30;99.90;;;;;;4949916;29;20229;-77
2022/01/14 11:00:48;;;;;;;19.27;14.60;;;5.60;1.00;;;;;;4938112;28;20291;-77
2022/01/14 11:03:15;;;;;;;18.17;14.43;;;6.20;99.90;;;;;;4948413;29;20178;-77
2022/01/14 11:05:42;;;;;;;21.73;14.57;;;5.70;99.90;;;;;;4952102;29;20571;-78
2022/01/14 11:08:08;;;;;;;18.80;14.50;;;6.40;99.90;;;;;;4953512;29;20182;-77
2022/01/14 11:10:38;;;;;;;22.23;17.47;;;6.60;99.90;;;;;;4953393;28;20197;-76
2022/01/14 11:13:07;;;;;;;19.80;16.45;;;6.80;1.00;;;;;;4952937;28;20434;-77
2022/01/14 11:15:33;;;;;;;21.43;17.70;;;6.80;6.60;;;;;;4955367;29;20194;-76
2022/01/14 11:18:04;;;;;;;20.43;14.00;;;7.20;1.00;;;;;;4956545;28;20183;-77
2022/01/14 11:20:34;;;;;;;18.17;15.97;;;7.70;1.00;;;;;;4956732;28;20642;-75
2022/01/14 11:23:15;;;;;;;19.47;14.73;;;7.50;1.00;;;;;;4957205;29;20298;-77
2022/01/14 11:26:01;;;;;;;20.97;15.10;;;8.40;1.00;;;;;;4946880;29;20281;-76
2022/01/14 11:28:30;;;;;;;16.73;13.07;;;9.20;1.00;;;;;;4939837;29;20518;-76
2022/01/14 11:30:56;;;;;;;18.57;13.00;;;10.20;1.00;;;;;;4937271;29;20262;-77
2022/01/14 11:33:41;;;;;;;17.10;13.27;;;10.80;1.00;;;;;;4937360;29;20569;-77
2022/01/14 11:36:08;;;;;;;18.37;13.67;;;10.90;1.00;;;;;;4936800;29;20203;-79
2022/01/14 11:38:37;;;;;;;17.60;13.37;;;10.50;1.00;;;;;;4936896;29;20183;-75
2022/01/14 11:41:03;;;;;;;19.27;14.50;;;11.30;1.00;;;;;;4937580;29;20239;-77
2022/01/14 11:44:07;;;;;;;18.30;14.67;;;11.40;1.00;;;;;;4936922;29;20533;-76
2022/01/14 11:46:36;;;;;;;17.27;14.87;;;10.10;1.00;;;;;;4906620;29;20214;-76
2022/01/14 11:49:22;;;;;;;22.03;15.57;;;9.80;1.00;;;;;;4944231;28;20678;-76
2022/01/14 11:52:00;;;;;;;21.23;15.43;;;10.50;1.00;;;;;;4945961;29;20181;-76
2022/01/14 11:54:46;;;;;;;18.50;14.97;;;10.40;1.00;;;;;;4945545;28;20178;-78
2022/01/14 11:57:45;;;;;;;20.17;15.03;;;9.70;1.00;;;;;;4946924;29;20178;-76
2022/01/14 12:03:09;;;;;;;26.00;21.83;;;8.50;1.00;;;;;;4955880;28;20210;-76
2022/01/14 12:05:56;;;;;;;19.07;14.83;;;8.20;1.00;;;;;;4955055;29;20310;-77
2022/01/14 12:08:25;;;;;;;20.57;14.47;;;8.40;1.00;;;;;;4954972;28;20187;-77
2022/01/14 12:10:55;;;;;;;17.03;13.37;;;8.80;1.00;;;;;;4955808;29;20186;-77
2022/01/14 12:13:30;;;;;;;18.70;13.50;;;9.50;1.00;;;;;;4955574;29;20170;-76
2022/01/14 12:16:01;;;;;;;18.27;12.70;;;11.00;1.00;;;;;;4954506;28;20556;-76
2022/01/14 12:18:58;;;;;;;15.43;12.13;;;11.20;1.00;;;;;;4941863;29;20245;-77
2022/01/14 12:21:44;;;;;;;17.90;12.27;;;10.90;1.00;;;;;;4945878;29;20211;-77
2022/01/14 12:24:31;;;;;;;16.43;12.17;;;11.20;1.00;;;;;;4947122;29;20568;-76
2022/01/14 12:29:37;;;;;;;17.03;12.07;;;12.50;1.00;;;;;;4956736;28;20173;-77
2022/01/14 12:32:22;;;;;;;19.10;11.80;;;13.20;1.00;;;;;;4956412;29;20715;-77
2022/01/14 12:34:56;;;;;;;14.53;11.13;;;13.70;1.00;;;;;;4954748;29;20241;-76
2022/01/14 12:37:26;;;;;;;13.25;11.85;;;14.00;1.00;;;;;;4954131;28;20432;-75
2022/01/14 12:39:53;;;;;;;13.33;11.63;;;12.60;1.00;;;;;;4954936;29;20214;-77
2022/01/14 12:42:20;;;;;;;12.60;10.77;;;12.20;1.00;;;;;;4954884;28;20798;-76
2022/01/14 12:44:47;;;;;;;12.80;10.60;;;12.50;1.00;;;;;;4955890;28;20531;-76
2022/01/14 12:47:20;;;;;;;12.07;10.67;;;13.60;1.00;;;;;;4955724;29;20183;-76
2022/01/14 12:49:47;;;;;;;11.80;10.53;;;13.80;1.00;;;;;;4956356;28;20273;-76
2022/01/14 12:52:16;;;;;;;13.17;10.03;;;14.50;1.00;;;;;;4955600;28;20588;-77
2022/01/14 12:54:45;;;;;;;13.37;9.93;;;13.60;1.00;;;;;;4954421;28;20190;-77
2022/01/14 12:57:18;;;;;;;12.73;10.40;;;12.80;1.00;;;;;;4937803;29;20214;-76
2022/01/14 12:59:46;;;;;;;12.67;9.07;;;13.00;1.00;;;;;;4956131;29;20210;-76
2022/01/14 13:02:19;;;;;;;10.33;9.20;;;12.20;1.00;;;;;;4968801;29;20202;-77
2022/01/14 13:04:57;;;;;;;14.10;10.00;;;12.70;1.00;;;;;;4968823;28;20206;-76
2022/01/14 13:07:25;;;;;;;10.60;8.93;;;13.20;1.00;;;;;;4968505;28;20209;-76
2022/01/14 13:09:52;;;;;;;11.83;9.13;;;12.70;1.00;;;;;;4963977;28;20213;-76